Ames Lake, Washington
Current Conditions -  °F | °C
As of 7:53 PM on Tuesday 21 Oct 2014 (Local Time) from KBFI Reporting Station
Overcast Overcast  
Wind Chill: 61°   Ceiling: 7000
Heat Index: 61°   Visibility: 10mi
Dew Point: 47°   Wind: 12mph
Humidity: 60%   Direction: 140°SE
Pressure: 29.83"   Gusts: NA
Location:  47.6833°N, 122.123°W
Report Text: KBFI 220253Z 14010KT 10SM BKN070 OVC100 16/08 A2983 RMK AO2 SLP099 T01610083 58017
Loading
Personal Weather Stations






























Interactive Weather Map
Tropical Storm Tracking
New forecast layout! Learn more

10-Day Weather Forecast

Advertisements
Track Severe Weather on mobile